createdAt,value
2019-04-29T20:40:42.990Z,359.98
2019-04-29T20:43:29.570Z,332.62
2019-04-29T20:46:18.023Z,320.10
2019-04-29T20:59:48.831Z,120.77
2019-04-29T21:02:35.308Z,180.57
2019-04-29T21:05:24.465Z,250.78
2019-04-29T21:08:16.380Z,281.25
2019-04-29T21:11:05.738Z,283.32
2019-04-29T21:13:56.206Z,110.12
2019-04-29T21:16:47.358Z,188.52
2019-04-29T21:19:53.044Z,273.87
2019-04-29T21:23:12.096Z,269.68
2019-04-29T21:26:08.822Z,242.65
2019-04-29T21:29:10.577Z,298.55
2019-04-29T21:32:05.917Z,361.40
2019-04-29T21:35:10.091Z,319.87
2019-04-29T21:38:08.672Z,305.70
2019-04-29T21:41:09.129Z,402.82
2019-04-29T21:43:57.525Z,399.62
2019-04-29T21:46:50.531Z,399.60
2019-04-29T21:53:56.502Z,341.42
2019-04-29T21:56:47.833Z,290.77
2019-04-29T21:59:35.768Z,303.90
2019-04-29T22:02:26.047Z,192.53
2019-04-29T22:05:18.078Z,178.12
2019-04-29T22:08:04.349Z,153.55
2019-04-29T22:10:58.369Z,219.13
2019-04-29T22:13:46.264Z,244.35
2019-04-29T22:16:35.661Z,267.57
2019-04-29T22:19:26.772Z,249.82
2019-04-29T22:22:14.257Z,245.07
2019-04-29T22:25:05.853Z,226.22
2019-04-29T22:27:52.610Z,218.25
2019-04-29T22:30:40.956Z,214.08
2019-04-29T22:33:29.784Z,212.68
2019-04-29T22:36:18.878Z,193.13
2019-04-29T22:39:07.562Z,191.25
2019-04-29T22:41:58.029Z,180.35
2019-04-29T22:44:46.685Z,188.87
2019-04-29T22:47:35.214Z,171.32
2019-04-29T22:50:23.694Z,162.95
2019-04-29T22:53:12.341Z,158.70
2019-04-29T22:56:00.687Z,154.47
2019-04-29T22:58:49.342Z,151.50
2019-04-29T23:04:26.927Z,146.85
2019-04-29T23:07:17.613Z,132.03
2019-04-29T23:10:06.874Z,132.82
2019-04-29T23:12:57.462Z,127.12
2019-04-29T23:15:45.530Z,125.15
2019-04-29T23:18:42.264Z,120.60
2019-04-29T23:21:45.011Z,116.55
2019-04-29T23:24:51.439Z,119.25
2019-04-29T23:27:40.798Z,115.52
2019-04-29T23:30:29.267Z,111.03
2019-04-29T23:33:22.858Z,102.17
2019-04-29T23:36:09.561Z,126.18
2019-04-29T23:38:57.635Z,138.77
2019-04-29T23:41:45.803Z,215.70
2019-04-29T23:44:37.858Z,210.00
2019-04-29T23:47:25.664Z,185.00
2019-04-29T23:50:14.110Z,168.68
2019-04-29T23:53:05.630Z,156.95
2019-04-29T23:55:55.575Z,150.53
2019-04-29T23:58:48.879Z,144.05
